createdAt,value
2017-09-20T19:53:32.127Z,1015.53
2017-09-20T19:54:41.296Z,1015.53
2017-09-20T19:55:50.482Z,1015.56
2017-09-20T19:56:59.730Z,1015.57
2017-09-20T19:58:08.563Z,1015.56
2017-09-20T19:59:17.400Z,1015.55
2017-09-20T20:00:26.235Z,1015.55
2017-09-20T20:01:35.405Z,1015.56
2017-09-20T20:02:44.239Z,1015.58
2017-09-20T20:03:53.223Z,1015.53
2017-09-20T20:05:02.658Z,1015.57
2017-09-20T20:06:11.641Z,1015.55
2017-09-20T20:07:20.479Z,1015.51
2017-09-20T20:08:29.314Z,1015.51
2017-09-20T20:09:38.266Z,1015.5
2017-09-20T20:10:47.100Z,1015.47
2017-09-20T20:11:55.939Z,1015.52
2017-09-20T20:13:04.771Z,1015.52
2017-09-20T20:14:13.613Z,1015.53
2017-09-20T20:15:22.452Z,1015.51
2017-09-20T20:16:31.463Z,1015.55
2017-09-20T20:17:40.647Z,1015.52
2017-09-20T20:18:49.628Z,1015.51
2017-09-20T20:19:58.463Z,1015.53
2017-09-20T20:21:07.362Z,1015.53
2017-09-20T20:22:16.549Z,1015.49
2017-09-20T20:23:25.788Z,1015.51
2017-09-20T20:24:35.036Z,1015.51
2017-09-20T20:25:43.874Z,1015.52
2017-09-20T20:26:52.783Z,1015.51
2017-09-20T20:28:02.073Z,1015.49
2017-09-20T20:29:10.954Z,1015.53
2017-09-20T20:30:19.793Z,1015.51
2017-09-20T20:31:28.631Z,1015.49
2017-09-20T20:32:37.626Z,1015.51
2017-09-20T20:33:46.463Z,1015.53
2017-09-20T20:34:55.302Z,1015.53
2017-09-20T20:36:04.143Z,1015.53
2017-09-20T20:37:13.197Z,1015.54
2017-09-20T20:38:22.435Z,1015.57
2017-09-20T20:39:31.441Z,1015.53
2017-09-20T20:40:40.384Z,1015.56
2017-09-20T20:41:49.217Z,1015.55
2017-09-20T20:42:58.056Z,1015.53
2017-09-20T20:44:06.891Z,1015.52
2017-09-20T20:45:15.801Z,1015.54
2017-09-20T20:46:24.641Z,1015.53
2017-09-20T20:47:33.483Z,1015.56
2017-09-20T20:48:42.595Z,1015.56
2017-09-20T20:49:51.439Z,1015.53
2017-09-20T20:51:00.268Z,1015.58
2017-09-20T20:52:09.106Z,1015.56
2017-09-20T20:53:18.282Z,1015.57
2017-09-20T20:54:27.120Z,1015.59
2017-09-20T20:55:35.953Z,1015.56
2017-09-20T20:56:45.008Z,1015.58
2017-09-20T20:57:53.839Z,1015.56
2017-09-20T20:59:02.674Z,1015.57
2017-09-20T21:00:11.510Z,1015.54
2017-09-20T21:01:20.354Z,1015.56
2017-09-20T21:02:29.190Z,1015.54
2017-09-20T21:03:38.203Z,1015.57
2017-09-20T21:04:47.034Z,1015.59
2017-09-20T21:05:55.865Z,1015.56
2017-09-20T21:07:04.706Z,1015.56
2017-09-20T21:08:13.545Z,1015.56
2017-09-20T21:09:22.381Z,1015.55
2017-09-20T21:10:31.216Z,1015.54
2017-09-20T21:11:40.055Z,1015.59
2017-09-20T21:12:49.049Z,1015.59
2017-09-20T21:13:57.947Z,1015.54
2017-09-20T21:15:06.790Z,1015.57
2017-09-20T21:16:16.346Z,1015.55
2017-09-20T21:17:25.188Z,1015.54
2017-09-20T21:18:34.030Z,1015.56
2017-09-20T21:19:43.179Z,1015.54
2017-09-20T21:20:52.019Z,1015.57
2017-09-20T21:22:00.859Z,1015.57
2017-09-20T21:23:09.696Z,1015.56
2017-09-20T21:24:18.530Z,1015.55
2017-09-20T21:25:27.373Z,1015.56
2017-09-20T21:26:36.212Z,1015.55
2017-09-20T21:27:45.100Z,1015.58
2017-09-20T21:28:54.254Z,1015.57
2017-09-20T21:30:03.089Z,1015.6
2017-09-20T21:31:11.929Z,1015.59
2017-09-20T21:32:20.784Z,1015.57
2017-09-20T21:33:29.628Z,1015.6
2017-09-20T21:34:38.463Z,1015.55
2017-09-20T21:35:47.401Z,1015.58
2017-09-20T21:36:56.353Z,1015.58
2017-09-20T21:38:05.357Z,1015.56
2017-09-20T21:39:14.271Z,1015.52
2017-09-20T21:40:23.103Z,1015.53
2017-09-20T21:41:31.942Z,1015.51
2017-09-20T21:42:40.786Z,1015.5
2017-09-20T21:43:49.621Z,1015.51
2017-09-20T21:44:58.461Z,1015.48
2017-09-20T21:46:07.292Z,1015.47
2017-09-20T21:47:16.132Z,1015.44
2017-09-20T21:48:24.965Z,1015.45
2017-09-20T21:49:33.808Z,1015.46
2017-09-20T21:50:42.696Z,1015.42
2017-09-20T21:51:51.568Z,1015.41
2017-09-20T21:53:00.434Z,1015.43
2017-09-20T21:54:09.274Z,1015.42
2017-09-20T21:55:18.122Z,1015.42
2017-09-20T21:56:27.100Z,1015.44
2017-09-20T21:57:36.423Z,1015.45
2017-09-20T21:58:45.263Z,1015.49
2017-09-20T21:59:54.096Z,1015.46
2017-09-20T22:01:03.369Z,1015.43
2017-09-20T22:02:12.210Z,1015.43
2017-09-20T22:03:21.076Z,1015.43
2017-09-20T22:04:29.913Z,1015.41
2017-09-20T22:05:39.074Z,1015.43
2017-09-20T22:06:47.909Z,1015.37
2017-09-20T22:07:56.746Z,1015.41
2017-09-20T22:09:05.721Z,1015.42
2017-09-20T22:10:14.578Z,1015.47
2017-09-20T22:11:23.485Z,1015.45
2017-09-20T22:12:32.324Z,1015.47
2017-09-20T22:13:41.161Z,1015.47
2017-09-20T22:14:49.993Z,1015.48
2017-09-20T22:15:58.904Z,1015.44
2017-09-20T22:17:07.740Z,1015.48
2017-09-20T22:18:16.585Z,1015.5
2017-09-20T22:19:25.518Z,1015.55
2017-09-20T22:20:34.387Z,1015.51
2017-09-20T22:21:43.224Z,1015.58
2017-09-20T22:22:52.073Z,1015.54
2017-09-20T22:24:01.559Z,1015.54
2017-09-20T22:25:10.397Z,1015.51
2017-09-20T22:26:19.237Z,1015.48
2017-09-20T22:27:28.397Z,1015.49
2017-09-20T22:28:37.556Z,1015.44
2017-09-20T22:29:46.721Z,1015.41
2017-09-20T22:30:55.561Z,1015.41
2017-09-20T22:32:04.399Z,1015.34
2017-09-20T22:33:13.614Z,1015.39
2017-09-20T22:34:22.534Z,1015.36
2017-09-20T22:35:31.369Z,1015.37
2017-09-20T22:36:40.239Z,1015.36
2017-09-20T22:37:49.109Z,1015.35
2017-09-20T22:38:58.021Z,1015.38
2017-09-20T22:40:06.861Z,1015.35
2017-09-20T22:41:16.134Z,1015.38
2017-09-20T22:42:25.120Z,1015.36
2017-09-20T22:43:34.279Z,1015.42
2017-09-20T22:44:43.120Z,1015.35
2017-09-20T22:45:52.016Z,1015.39
2017-09-20T22:47:00.878Z,1015.39
2017-09-20T22:48:09.714Z,1015.41
2017-09-20T22:49:18.613Z,1015.42
2017-09-20T22:50:27.496Z,1015.44
2017-09-20T22:51:36.447Z,1015.48
2017-09-20T22:52:45.411Z,1015.52
2017-09-20T22:53:54.357Z,1015.57
2017-09-20T22:55:03.588Z,1015.58
2017-09-20T22:56:12.421Z,1015.61
2017-09-20T22:57:21.275Z,1015.59
2017-09-20T22:58:30.113Z,1015.59
2017-09-20T22:59:38.950Z,1015.55
2017-09-20T23:00:47.812Z,1015.59
2017-09-20T23:01:56.675Z,1015.52
2017-09-20T23:03:05.963Z,1015.59
2017-09-20T23:04:15.279Z,1015.54
2017-09-20T23:05:24.505Z,1015.58
2017-09-20T23:06:33.488Z,1015.55
2017-09-20T23:07:42.785Z,1015.55
2017-09-20T23:08:51.730Z,1015.58
2017-09-20T23:10:00.569Z,1015.66
2017-09-20T23:11:09.411Z,1015.66
2017-09-20T23:12:18.297Z,1015.69
2017-09-20T23:13:27.538Z,1015.66
2017-09-20T23:14:36.569Z,1015.69
2017-09-20T23:15:45.687Z,1015.7
2017-09-20T23:16:54.586Z,1015.72
2017-09-20T23:18:03.433Z,1015.67
2017-09-20T23:19:12.267Z,1015.7
2017-09-20T23:20:21.102Z,1015.72
2017-09-20T23:21:29.937Z,1015.71
2017-09-20T23:22:38.775Z,1015.69
2017-09-20T23:23:47.612Z,1015.72
2017-09-20T23:24:56.815Z,1015.71
2017-09-20T23:26:05.972Z,1015.72
2017-09-20T23:27:15.847Z,1015.78
2017-09-20T23:28:24.680Z,1015.75
2017-09-20T23:29:33.606Z,1015.79
2017-09-20T23:30:42.715Z,1015.8
2017-09-20T23:31:51.624Z,1015.76
2017-09-20T23:33:00.974Z,1015.78
2017-09-20T23:34:09.824Z,1015.76
2017-09-20T23:35:18.661Z,1015.79
2017-09-20T23:36:27.493Z,1015.79
2017-09-20T23:37:36.720Z,1015.83
2017-09-20T23:38:45.655Z,1015.84
2017-09-20T23:39:54.988Z,1015.87
2017-09-20T23:41:04.210Z,1015.89
2017-09-20T23:42:13.373Z,1015.85
2017-09-20T23:43:22.613Z,1015.86
2017-09-20T23:44:31.451Z,1015.9
2017-09-20T23:45:41.283Z,1015.9
2017-09-20T23:46:50.279Z,1015.92
2017-09-20T23:47:59.473Z,1015.95
2017-09-20T23:49:08.917Z,1015.94
2017-09-20T23:50:17.900Z,1015.98
2017-09-20T23:51:26.984Z,1015.95
2017-09-20T23:52:36.208Z,1015.95
2017-09-20T23:53:45.246Z,1015.95
2017-09-20T23:54:54.140Z,1015.9
2017-09-20T23:56:03.777Z,1015.9
2017-09-20T23:57:13.421Z,1015.88
2017-09-20T23:58:22.587Z,1015.86
2017-09-20T23:59:31.425Z,1015.81
